Latest Weather Observations for King Island Airport

IDT60801

Issued at 7:35 am EST Sunday 21 September 2014 (issued every 30 minutes, with the page automatically refreshed every 10 minutes)

About weather observations | Map of weather stations | Latest weather observations for TAS | Other Formats
Station Details ID: 098017 Name: KING ISLAND AIRPORT Lat: -39.88 Lon: 143.88 Height: 37.0 m
Data from the previous 72 hours. | See also: Recent months at King Island Airport
Date/Time
EST
Temp
°C
App
Temp
°C
Dew
Point
Rel
Hum
%
Delta-T
°C
Wind Press
QNH
hPa
Press
MSL
hPa
Rain
since 9 am
mm
Dir
 
Spd
km/h
Gust
km/h
Spd
kts
Gust
kts
21/07:30am 11.6 9.0 6.1 69 2.6 SW 9 15 5 8 1031.5 1031.6 0.0
21/07:00am 11.4 7.9 5.5 67 2.7 SSW 13 17 7 9 1031.1 1031.2 0.0
21/06:30am 11.2 8.2 5.9 70 2.5 SW 11 15 6 8 1030.7 1030.8 0.0
21/06:00am 11.1 8.4 5.4 68 2.6 SW 9 15 5 8 1030.3 1030.4 0.0
21/05:30am 10.7 7.5 5.0 68 2.6 SW 11 13 6 7 1030.3 1030.4 0.0
21/05:00am 11.3 7.8 5.4 67 2.7 WSW 13 19 7 10 1030.0 1030.1 0.0
21/04:30am 11.0 7.4 4.9 66 2.8 SW 13 15 7 8 1029.9 1030.0 0.0
21/04:00am 11.1 7.5 5.0 66 2.8 WSW 13 17 7 9 1029.7 1029.8 0.0
21/03:30am 11.1 7.8 4.8 65 2.9 SW 11 17 6 9 1029.8 1029.9 0.0
21/03:00am 11.3 7.6 4.5 63 3.0 WSW 13 15 7 8 1029.8 1029.9 0.0
21/02:30am 11.6 6.8 4.6 62 3.2 SW 19 24 10 13 1030.1 1030.2 0.0
21/02:00am 11.3 7.8 5.4 67 2.7 SW 13 15 7 8 1030.2 1030.3 0.0
21/01:30am 11.0 7.8 5.1 67 2.7 WSW 11 17 6 9 1030.4 1030.5 0.0
21/01:00am 11.0 8.1 6.4 73 2.1 SW 11 17 6 9 1030.6 1030.7 0.0
21/12:30am 11.1 7.9 6.8 75 2.0 SW 13 17 7 9 1030.6 1030.7 0.0
21/12:00am 10.6 9.4 6.4 75 2.0 SSW 2 15 1 8 1030.7 1030.8 0.0
 
Date/Time
EST
Temp
°C
App
Temp
°C
Dew
Point
Rel
Hum
%
Delta-T
°C
Wind Press
QNH
hPa
Press
MSL
hPa
Rain
since 9 am
mm
Dir
 
Spd
km/h
Gust
km/h
Spd
kts
Gust
kts
20/11:30pm 10.6 9.7 6.0 73 2.1 CALM 0 0 0 0 1030.8 1030.9 0.0
20/11:00pm 10.5 8.2 5.7 72 2.2 SSE 7 9 4 5 1031.0 1031.1 0.0
20/10:30pm 11.4 7.8 4.8 64 3.0 SW 13 19 7 10 1030.8 1030.9 0.0
20/10:00pm 10.9 9.7 6.6 75 2.0 S 2 7 1 4 1030.7 1030.8 0.0
20/09:30pm 10.9 8.9 6.3 73 2.2 S 6 7 3 4 1030.7 1030.8 0.0
20/09:00pm 11.0 8.4 6.0 71 2.3 SSW 9 11 5 6 1030.6 1030.7 0.0
20/08:30pm 11.0 8.2 6.9 76 1.9 SW 11 13 6 7 1030.5 1030.6 0.0
20/08:00pm 10.6 8.9 7.5 81 1.5 S 6 7 3 4 1030.1 1030.2 0.0
20/07:30pm 11.1 9.1 7.2 77 1.9 SSW 7 9 4 5 1030.0 1030.1 0.0
20/07:00pm 11.2 8.9 7.3 77 1.9 SSW 9 13 5 7 1029.7 1029.8 0.0
20/06:30pm 11.4 9.2 7.7 78 1.8 SW 9 11 5 6 1029.5 1029.6 0.0
20/06:00pm 11.6 8.6 7.7 77 1.9 SSW 13 15 7 8 1029.6 1029.7 0.0
20/05:30pm 11.9 7.7 7.6 75 2.1 SSW 19 28 10 15 1029.2 1029.3 0.0
20/05:00pm 11.8 7.0 7.5 75 2.1 SSW 22 30 12 16 1028.9 1029.0 0.0
20/04:30pm 12.1 7.0 7.8 75 2.1 SSW 24 33 13 18 1028.6 1028.7 0.0
20/04:00pm 12.2 7.5 7.9 75 2.1 SSW 22 30 12 16 1028.4 1028.5 0.0
20/03:30pm 12.8 8.1 7.7 71 2.5 SSW 22 30 12 16 1028.5 1028.6 0.0
20/03:00pm 12.6 8.2 7.5 71 2.5 SW 20 28 11 15 1028.6 1028.7 0.0
20/02:30pm 12.8 6.7 6.8 67 2.9 SSW 28 35 15 19 1028.5 1028.6 0.0
20/02:00pm 12.9 6.9 7.1 68 2.8 SW 28 35 15 19 1028.4 1028.5 0.0
20/01:30pm 12.8 7.7 7.7 71 2.5 SW 24 33 13 18 1028.3 1028.4 0.0
20/01:00pm 12.8 8.5 7.7 71 2.5 SW 20 28 11 15 1028.4 1028.5 0.0
20/12:30pm 12.6 8.4 8.3 75 2.1 SW 20 26 11 14 1028.4 1028.5 0.0
20/12:00pm 13.4 8.9 8.7 73 2.3 SW 22 33 12 18 1028.3 1028.4 0.0
20/11:30am 12.6 7.9 7.9 73 2.3 SSW 22 32 12 17 1028.2 1028.3 0.0
20/11:00am 12.8 8.1 7.9 72 2.4 SW 22 30 12 16 1028.3 1028.4 0.0
20/10:30am 13.0 8.6 7.5 69 2.7 SSW 20 30 11 16 1028.5 1028.6 0.0
20/10:00am 12.5 7.1 8.0 74 2.2 SSW 26 33 14 18 1028.5 1028.6 0.0
20/09:30am 12.5 8.2 8.0 74 2.2 S 20 30 11 16 1028.3 1028.4 0.0
20/09:00am 11.9 7.4 8.4 79 1.7 SSW 22 33 12 18 1028.3 1028.4 1.8
20/08:30am 11.8 6.0 9.4 85 1.2 SSW 30 39 16 21 1028.3 1028.4 1.8
20/08:00am 10.8 7.3 8.9 88 0.9 SSW 17 22 9 12 1027.9 1028.0 1.8
20/07:30am 10.1 7.0 8.7 91 0.7 S 15 20 8 11 1027.8 1027.9 1.8
20/07:00am 9.9 6.6 8.2 89 0.8 SSW 15 22 8 12 1027.3 1027.4 1.6
20/06:30am 9.9 7.5 8.5 91 0.7 SSW 11 15 6 8 1026.9 1026.9 1.6
20/06:00am 9.3 5.9 7.6 89 0.8 SW 15 19 8 10 1026.6 1026.6 1.4
20/05:30am 9.7 5.4 7.8 88 0.9 SW 20 30 11 16 1026.2 1026.2 1.4
20/05:00am 9.9 6.1 7.5 85 1.1 SW 17 22 9 12 1025.7 1025.7 1.4
20/04:30am 10.0 6.3 7.9 87 1.0 SW 17 26 9 14 1025.4 1025.4 1.4
20/04:00am 10.3 5.6 7.9 85 1.2 SW 22 33 12 18 1025.2 1025.2 1.4
20/03:30am 10.0 5.7 7.9 87 1.0 SW 20 28 11 15 1025.1 1025.1 1.4
20/03:00am 10.1 5.9 8.2 88 0.9 SW 20 28 11 15 1025.1 1025.1 1.4
20/02:30am 10.1 6.8 8.2 88 0.9 SW 15 22 8 12 1025.0 1025.0 1.2
20/02:00am 10.4 5.5 8.3 87 1.0 SSW 24 33 13 18 1025.2 1025.2 0.8
20/01:30am 10.3 7.2 8.7 90 0.8 SW 15 22 8 12 1025.1 1025.1 0.8
20/01:00am 10.4 7.3 8.8 90 0.8 S 15 19 8 10 1025.2 1025.2 0.8
20/12:30am 10.0 5.1 8.6 91 0.7 SW 24 37 13 20 1025.2 1025.2 0.8
20/12:29am 10.0 5.1 8.6 91 0.7 SW 24 37 13 20 1025.2 1025.2 0.8
20/12:16am 10.0 4.7 8.6 91 0.7 SW 26 41 14 22 1025.2 1025.2 0.6
20/12:00am 10.0 5.2 8.8 92 0.6 SW 24 32 13 17 1025.1 1025.1 0.6
 
Date/Time
EST
Temp
°C
App
Temp
°C
Dew
Point
Rel
Hum
%
Delta-T
°C
Wind Press
QNH
hPa
Press
MSL
hPa
Rain
since 9 am
mm
Dir
 
Spd
km/h
Gust
km/h
Spd
kts
Gust
kts
19/11:30pm 10.0 5.9 8.6 91 0.7 SW 20 32 11 17 1025.2 1025.2 0.6
19/11:00pm 10.3 5.0 8.6 89 0.8 WSW 26 35 14 19 1025.3 1025.3 0.6
19/10:30pm 10.8 5.5 8.6 86 1.1 SW 26 35 14 19 1025.3 1025.3 0.6
19/10:00pm 10.9 6.3 8.3 84 1.3 SW 22 30 12 16 1025.2 1025.2 0.6
19/09:30pm 10.7 6.2 8.6 87 1.0 SW 22 28 12 15 1025.2 1025.2 0.6
19/09:00pm 10.6 6.5 8.5 87 1.0 SSW 20 26 11 14 1025.2 1025.2 0.6
19/08:30pm 10.7 5.7 8.1 84 1.3 SW 24 33 13 18 1025.1 1025.1 0.2
19/08:00pm 10.5 5.8 7.9 84 1.3 WSW 22 32 12 17 1025.0 1025.0 0.2
19/07:30pm 10.9 5.8 7.8 81 1.5 SW 24 33 13 18 1024.8 1024.8 0.2
19/07:00pm 10.6 5.2 7.8 83 1.3 SW 26 35 14 19 1024.6 1024.6 0.2
19/06:30pm 11.0 5.9 7.7 80 1.6 SW 24 33 13 18 1024.2 1024.2 0.2
19/06:00pm 10.7 4.9 7.9 83 1.3 WSW 28 37 15 20 1024.1 1024.1 0.2
19/05:30pm 11.2 5.8 8.1 81 1.5 SW 26 35 14 19 1023.9 1023.9 0.2
19/05:00pm 11.5 5.8 8.4 81 1.5 SW 28 39 15 21 1023.7 1023.7 0.2
19/04:30pm 10.4 4.4 8.7 89 0.8 SW 30 39 16 21 1023.7 1023.7 0.2
19/04:00pm 11.2 5.6 8.6 84 1.3 SW 28 35 15 19 1023.8 1023.8 0.2
19/03:30pm 12.8 6.8 8.7 76 2.1 WSW 30 39 16 21 1023.6 1023.6 0.2
19/03:00pm 12.5 6.4 8.4 76 2.0 SW 30 39 16 21 1023.5 1023.5 0.2
19/02:30pm 11.9 6.0 9.1 83 1.4 SW 30 39 16 21 1023.5 1023.5 0.2
19/02:14pm 12.2 4.6 9.0 81 1.6 SW 39 44 21 24 1023.4 1023.4 0.2
19/02:00pm 11.7 5.7 8.6 81 1.5 WSW 30 39 16 21 1023.4 1023.4 0.2
19/01:30pm 12.9 6.7 7.8 71 2.5 WSW 30 43 16 23 1023.5 1023.5 0.0
19/01:00pm 12.2 7.4 8.9 80 1.6 W 24 35 13 19 1023.6 1023.6 0.0
19/12:30pm 11.8 4.7 7.9 77 1.9 WSW 35 48 19 26 1023.8 1023.8 0.0
19/12:00pm 13.3 6.9 6.9 65 3.1 WSW 30 41 16 22 1023.7 1023.7 0.0
19/11:30am 13.1 6.7 6.9 66 3.0 WSW 30 39 16 21 1023.8 1023.8 0.0
19/11:00am 13.7 7.1 7.7 67 2.9 WSW 32 41 17 22 1023.8 1023.8 0.0
19/10:30am 12.9 6.3 7.8 71 2.5 SW 32 44 17 24 1024.0 1024.0 0.0
19/10:00am 12.5 5.8 7.2 70 2.6 SW 32 41 17 22 1024.1 1024.1 0.0
19/09:30am 13.0 6.5 6.4 64 3.2 SW 30 39 16 21 1024.2 1024.2 0.0
19/09:00am 12.4 5.3 6.2 66 2.9 SW 33 41 18 22 1024.0 1024.0 0.6
19/08:30am 12.2 5.8 7.1 71 2.5 SW 30 37 16 20 1023.9 1023.9 0.6
19/08:00am 11.1 4.3 7.0 76 1.9 SW 32 44 17 24 1023.9 1023.9 0.6
19/07:30am 11.3 5.5 8.0 80 1.6 SW 28 35 15 19 1023.6 1023.6 0.6
19/07:00am 10.2 5.7 8.6 90 0.8 WSW 22 30 12 16 1023.5 1023.5 0.6
19/06:30am 11.1 6.5 8.1 82 1.5 SW 22 32 12 17 1023.2 1023.2 0.4
19/06:00am 10.9 5.9 8.0 82 1.4 SW 24 32 13 17 1022.9 1022.9 0.4
19/05:30am 10.5 5.9 8.3 86 1.1 WSW 22 32 12 17 1022.8 1022.8 0.4
19/05:00am 10.2 5.6 8.1 87 1.0 WSW 22 30 12 16 1022.8 1022.8 0.4
19/04:43am 10.1 4.3 7.9 86 1.1 SW 28 46 15 25 1022.8 1022.8 0.4
19/04:30am 10.7 5.8 8.3 85 1.2 WSW 24 32 13 17 1022.6 1022.6 0.4
19/04:00am 10.1 5.0 7.5 84 1.2 WSW 24 33 13 18 1022.4 1022.4 0.4
19/03:30am 9.9 4.8 7.8 87 1.0 SW 24 37 13 20 1022.7 1022.7 0.4
19/03:00am 10.8 5.4 8.0 83 1.4 WSW 26 37 14 20 1022.6 1022.6 0.4
19/02:30am 10.5 6.2 7.9 84 1.3 WSW 20 28 11 15 1022.8 1022.8 0.4
19/02:00am 10.5 5.7 7.4 81 1.5 WSW 22 28 12 15 1022.9 1022.9 0.4
19/01:30am 10.8 5.4 8.0 83 1.4 WSW 26 35 14 19 1023.1 1023.1 0.4
19/01:00am 10.3 4.9 8.1 86 1.1 WSW 26 41 14 22 1023.2 1023.2 0.4
19/12:30am 10.6 5.3 6.7 77 1.8 WSW 24 30 13 16 1023.2 1023.2 0.4
19/12:00am 10.7 5.4 6.6 76 1.9 WSW 24 32 13 17 1023.3 1023.3 0.4
 
Date/Time
EST
Temp
°C
App
Temp
°C
Dew
Point
Rel
Hum
%
Delta-T
°C
Wind Press
QNH
hPa
Press
MSL
hPa
Rain
since 9 am
mm
Dir
 
Spd
km/h
Gust
km/h
Spd
kts
Gust
kts
18/11:30pm 10.8 5.5 6.7 76 1.9 WSW 24 32 13 17 1023.4 1023.4 0.4
18/11:00pm 10.9 5.7 7.2 78 1.8 WSW 24 35 13 19 1023.7 1023.7 0.4
18/10:30pm 10.3 5.9 7.2 81 1.5 WSW 20 32 11 17 1023.9 1023.9 0.4
18/10:00pm 10.6 5.7 6.7 77 1.8 WSW 22 32 12 17 1024.0 1024.0 0.4
18/09:30pm 10.4 5.5 6.9 79 1.7 WSW 22 32 12 17 1023.9 1023.9 0.4
18/09:00pm 10.6 4.9 6.6 76 1.9 WSW 26 35 14 19 1023.8 1023.8 0.4
18/08:30pm 10.7 5.9 7.2 79 1.7 WSW 22 32 12 17 1023.6 1023.6 0.4
18/08:00pm 10.4 5.0 6.5 77 1.8 WSW 24 32 13 17 1023.6 1023.6 0.4
18/07:30pm 10.5 4.4 6.5 76 1.9 WSW 28 37 15 20 1023.5 1023.5 0.4
18/07:00pm 10.6 4.5 6.4 75 2.0 WSW 28 39 15 21 1023.2 1023.2 0.4
18/06:30pm 10.4 4.5 6.0 74 2.0 WSW 26 35 14 19 1023.0 1023.0 0.4
18/06:00pm 10.4 4.4 5.4 71 2.3 WSW 26 39 14 21 1023.0 1023.0 0.4
18/05:30pm 10.9 4.4 4.6 65 2.8 SW 28 37 15 20 1022.9 1022.9 0.4
18/05:00pm 11.8 5.6 4.1 59 3.4 SW 26 32 14 17 1022.7 1022.7 0.4
18/04:30pm 11.4 4.4 4.2 61 3.2 SW 30 39 16 21 1022.6 1022.6 0.4
18/04:00pm 12.1 4.8 4.3 59 3.5 SW 32 46 17 25 1022.6 1022.6 0.4
18/03:30pm 12.0 5.0 5.9 66 2.9 SW 32 43 17 23 1022.6 1022.6 0.4
18/03:00pm 12.5 5.5 6.1 65 3.0 SW 32 41 17 22 1022.5 1022.5 0.4
18/02:30pm 12.9 5.3 4.1 55 4.0 SW 33 43 18 23 1022.4 1022.4 0.4
18/02:00pm 12.8 5.4 4.8 58 3.7 SW 33 43 18 23 1022.3 1022.3 0.4
18/01:30pm 12.0 5.1 4.7 61 3.3 SW 30 37 16 20 1022.3 1022.3 0.4
18/01:00pm 12.8 6.2 4.3 56 3.9 SW 28 41 15 22 1022.1 1022.1 0.4
18/12:30pm 12.4 5.4 4.1 57 3.8 SW 30 43 16 23 1022.4 1022.4 0.4
18/12:00pm 12.1 4.6 4.3 59 3.5 SW 33 41 18 22 1022.4 1022.4 0.4
18/11:30am 11.8 4.7 5.4 65 3.0 SW 32 39 17 21 1022.5 1022.5 0.4
18/11:00am 10.6 4.2 7.1 79 1.7 SSW 30 39 16 21 1022.6 1022.6 0.4
18/10:30am 9.8 4.1 6.9 82 1.4 WSW 26 37 14 20 1022.6 1022.6 0.4
18/10:00am 11.4 4.1 5.5 67 2.7 SW 33 46 18 25 1022.4 1022.4 0.2
18/09:30am 10.6 3.4 6.0 73 2.1 SSW 33 43 18 23 1022.3 1022.3 0.2
18/09:00am 11.2 4.1 5.5 68 2.6 SW 32 41 17 22 1021.9 1021.9 2.6
18/08:30am 10.7 4.4 5.9 72 2.2 SW 28 35 15 19 1021.6 1021.6 2.6
18/08:00am 9.4 3.5 5.8 78 1.6 SW 26 37 14 20 1021.4 1021.4 2.6
18/07:48am 9.8 1.9 6.0 77 1.8 SW 37 46 20 25 1021.3 1021.3 2.6

Other Formats:

Comma delimited format used in spreadsheet applications
http://www.bom.gov.au/fwo/IDT60801/IDT60801.94850.axf

JavaScript Object Notation format (JSON) in row-major order
http://www.bom.gov.au/fwo/IDT60801/IDT60801.94850.json